sensor_id;sensor_type;location;lat;lon;timestamp;temperature;humidity
1568;DHT22;777;47.156;8.326;2022-11-27T00:00:02;2.20;99.90
1568;DHT22;777;47.156;8.326;2022-11-27T00:02:38;2.20;99.90
1568;DHT22;777;47.156;8.326;2022-11-27T00:05:06;2.20;99.90
1568;DHT22;777;47.156;8.326;2022-11-27T00:07:34;2.20;99.90
1568;DHT22;777;47.156;8.326;2022-11-27T00:10:02;2.20;99.90
1568;DHT22;777;47.156;8.326;2022-11-27T00:12:30;2.20;99.90
1568;DHT22;777;47.156;8.326;2022-11-27T00:14:57;2.30;99.90
1568;DHT22;777;47.156;8.326;2022-11-27T00:17:24;2.20;99.90
1568;DHT22;777;47.156;8.326;2022-11-27T00:19:51;2.30;99.90
1568;DHT22;777;47.156;8.326;2022-11-27T00:22:18;2.30;99.90
1568;DHT22;777;47.156;8.326;2022-11-27T00:24:46;2.30;99.90
1568;DHT22;777;47.156;8.326;2022-11-27T00:27:14;2.30;99.90
1568;DHT22;777;47.156;8.326;2022-11-27T00:29:41;2.30;99.90
1568;DHT22;777;47.156;8.326;2022-11-27T00:32:08;2.30;99.90
1568;DHT22;777;47.156;8.326;2022-11-27T00:34:35;2.30;99.90
1568;DHT22;777;47.156;8.326;2022-11-27T00:37:02;2.30;99.90
1568;DHT22;777;47.156;8.326;2022-11-27T00:39:30;2.40;99.90
1568;DHT22;777;47.156;8.326;2022-11-27T00:41:58;2.40;99.90
1568;DHT22;777;47.156;8.326;2022-11-27T00:44:25;2.40;99.90
1568;DHT22;777;47.156;8.326;2022-11-27T00:46:52;2.40;99.90
1568;DHT22;777;47.156;8.326;2022-11-27T00:49:19;2.40;99.90
1568;DHT22;777;47.156;8.326;2022-11-27T00:51:46;2.40;99.90
1568;DHT22;777;47.156;8.326;2022-11-27T00:54:13;2.40;99.90
1568;DHT22;777;47.156;8.326;2022-11-27T00:56:40;2.40;99.90
1568;DHT22;777;47.156;8.326;2022-11-27T00:59:09;2.40;99.90
1568;DHT22;777;47.156;8.326;2022-11-27T01:01:38;2.40;99.90
1568;DHT22;777;47.156;8.326;2022-11-27T01:04:07;2.50;99.90
1568;DHT22;777;47.156;8.326;2022-11-27T01:06:35;2.40;99.90
1568;DHT22;777;47.156;8.326;2022-11-27T01:09:03;2.40;99.90
1568;DHT22;777;47.156;8.326;2022-11-27T01:11:32;2.40;99.90
1568;DHT22;777;47.156;8.326;2022-11-27T01:14:01;2.40;99.90
1568;DHT22;777;47.156;8.326;2022-11-27T01:16:31;2.30;99.90
1568;DHT22;777;47.156;8.326;2022-11-27T01:19:00;2.30;99.90
1568;DHT22;777;47.156;8.326;2022-11-27T01:21:28;2.40;99.90
1568;DHT22;777;47.156;8.326;2022-11-27T01:23:57;2.30;99.90
1568;DHT22;777;47.156;8.326;2022-11-27T01:26:25;2.30;99.90
1568;DHT22;777;47.156;8.326;2022-11-27T01:28:53;2.40;99.90
1568;DHT22;777;47.156;8.326;2022-11-27T01:31:21;2.30;99.90
1568;DHT22;777;47.156;8.326;2022-11-27T01:33:53;2.40;99.90
1568;DHT22;777;47.156;8.326;2022-11-27T01:36:21;2.30;99.90
1568;DHT22;777;47.156;8.326;2022-11-27T01:38:48;2.30;99.90
1568;DHT22;777;47.156;8.326;2022-11-27T01:41:17;2.20;99.90
1568;DHT22;777;47.156;8.326;2022-11-27T01:43:47;2.20;99.90
1568;DHT22;777;47.156;8.326;2022-11-27T01:46:25;2.20;99.90
1568;DHT22;777;47.156;8.326;2022-11-27T01:48:58;2.20;99.90
1568;DHT22;777;47.156;8.326;2022-11-27T01:51:26;2.20;99.90
1568;DHT22;777;47.156;8.326;2022-11-27T01:53:54;2.20;99.90
1568;DHT22;777;47.156;8.326;2022-11-27T01:56:22;2.10;99.90
1568;DHT22;777;47.156;8.326;2022-11-27T01:58:50;2.10;99.90
1568;DHT22;777;47.156;8.326;2022-11-27T02:01:17;2.00;99.90
1568;DHT22;777;47.156;8.326;2022-11-27T02:03:44;2.00;99.90
1568;DHT22;777;47.156;8.326;2022-11-27T02:06:13;1.90;99.90
1568;DHT22;777;47.156;8.326;2022-11-27T02:08:40;1.90;99.90
1568;DHT22;777;47.156;8.326;2022-11-27T02:11:14;1.80;99.90
1568;DHT22;777;47.156;8.326;2022-11-27T02:13:44;1.80;99.90
1568;DHT22;777;47.156;8.326;2022-11-27T02:16:18;1.80;99.90
1568;DHT22;777;47.156;8.326;2022-11-27T02:18:55;2.00;99.90
1568;DHT22;777;47.156;8.326;2022-11-27T02:21:32;2.10;99.90
1568;DHT22;777;47.156;8.326;2022-11-27T02:24:16;2.10;99.90
1568;DHT22;777;47.156;8.326;2022-11-27T02:27:04;2.20;99.90
1568;DHT22;777;47.156;8.326;2022-11-27T02:29:40;2.00;99.90
1568;DHT22;777;47.156;8.326;2022-11-27T02:32:12;2.00;99.90
1568;DHT22;777;47.156;8.326;2022-11-27T02:34:45;2.00;99.90
1568;DHT22;777;47.156;8.326;2022-11-27T02:37:18;2.00;99.90
1568;DHT22;777;47.156;8.326;2022-11-27T02:39:54;2.00;99.90
1568;DHT22;777;47.156;8.326;2022-11-27T02:42:22;2.00;99.90
1568;DHT22;777;47.156;8.326;2022-11-27T02:44:56;2.00;99.90
1568;DHT22;777;47.156;8.326;2022-11-27T02:47:26;2.00;99.90
1568;DHT22;777;47.156;8.326;2022-11-27T02:49:54;2.00;99.90
1568;DHT22;777;47.156;8.326;2022-11-27T02:52:22;2.00;99.90
1568;DHT22;777;47.156;8.326;2022-11-27T02:54:51;2.00;99.90
1568;DHT22;777;47.156;8.326;2022-11-27T02:57:22;2.00;99.90
1568;DHT22;777;47.156;8.326;2022-11-27T02:59:53;2.10;99.90
1568;DHT22;777;47.156;8.326;2022-11-27T03:02:27;2.00;99.90
1568;DHT22;777;47.156;8.326;2022-11-27T03:04:57;1.90;99.90
1568;DHT22;777;47.156;8.326;2022-11-27T03:07:32;1.90;99.90
1568;DHT22;777;47.156;8.326;2022-11-27T03:10:06;1.80;99.90
1568;DHT22;777;47.156;8.326;2022-11-27T03:12:34;1.80;99.90
1568;DHT22;777;47.156;8.326;2022-11-27T03:15:03;1.80;99.90
1568;DHT22;777;47.156;8.326;2022-11-27T03:17:39;1.80;99.90
1568;DHT22;777;47.156;8.326;2022-11-27T03:20:12;1.70;99.90
1568;DHT22;777;47.156;8.326;2022-11-27T03:22:41;1.70;99.90
1568;DHT22;777;47.156;8.326;2022-11-27T03:25:09;1.80;99.90
1568;DHT22;777;47.156;8.326;2022-11-27T03:27:39;1.80;99.90
1568;DHT22;777;47.156;8.326;2022-11-27T03:30:11;1.80;99.90
1568;DHT22;777;47.156;8.326;2022-11-27T03:32:38;1.80;99.90
1568;DHT22;777;47.156;8.326;2022-11-27T03:35:08;1.90;99.90
1568;DHT22;777;47.156;8.326;2022-11-27T03:37:37;1.90;99.90
1568;DHT22;777;47.156;8.326;2022-11-27T03:40:05;1.80;99.90
1568;DHT22;777;47.156;8.326;2022-11-27T03:42:39;1.80;99.90
1568;DHT22;777;47.156;8.326;2022-11-27T03:45:16;1.80;99.90
1568;DHT22;777;47.156;8.326;2022-11-27T03:47:53;1.90;99.90
1568;DHT22;777;47.156;8.326;2022-11-27T03:50:31;1.80;99.90
1568;DHT22;777;47.156;8.326;2022-11-27T03:53:06;1.80;99.90
1568;DHT22;777;47.156;8.326;2022-11-27T03:55:41;1.80;99.90
1568;DHT22;777;47.156;8.326;2022-11-27T03:58:14;1.70;99.90
1568;DHT22;777;47.156;8.326;2022-11-27T04:00:44;1.80;99.90
1568;DHT22;777;47.156;8.326;2022-11-27T04:03:13;1.70;99.90
1568;DHT22;777;47.156;8.326;2022-11-27T04:05:47;1.70;99.90
1568;DHT22;777;47.156;8.326;2022-11-27T04:08:14;1.70;99.90
1568;DHT22;777;47.156;8.326;2022-11-27T04:10:41;1.60;99.90
1568;DHT22;777;47.156;8.326;2022-11-27T04:13:08;1.60;99.90
1568;DHT22;777;47.156;8.326;2022-11-27T04:15:35;1.70;99.90
1568;DHT22;777;47.156;8.326;2022-11-27T04:18:04;1.70;99.90
1568;DHT22;777;47.156;8.326;2022-11-27T04:20:31;1.70;99.90
1568;DHT22;777;47.156;8.326;2022-11-27T04:22:58;1.60;99.90
1568;DHT22;777;47.156;8.326;2022-11-27T04:25:25;1.50;99.90
1568;DHT22;777;47.156;8.326;2022-11-27T04:27:52;1.50;99.90
1568;DHT22;777;47.156;8.326;2022-11-27T04:30:19;1.60;99.90
1568;DHT22;777;47.156;8.326;2022-11-27T04:32:46;1.50;99.90
1568;DHT22;777;47.156;8.326;2022-11-27T04:35:14;1.60;99.90
1568;DHT22;777;47.156;8.326;2022-11-27T04:37:41;1.50;99.90
1568;DHT22;777;47.156;8.326;2022-11-27T04:40:09;1.50;99.90
1568;DHT22;777;47.156;8.326;2022-11-27T04:42:36;1.60;99.90
1568;DHT22;777;47.156;8.326;2022-11-27T04:45:04;1.50;99.90
1568;DHT22;777;47.156;8.326;2022-11-27T04:47:31;1.60;99.90
1568;DHT22;777;47.156;8.326;2022-11-27T04:49:59;1.60;99.90
1568;DHT22;777;47.156;8.326;2022-11-27T04:52:27;1.60;99.90
1568;DHT22;777;47.156;8.326;2022-11-27T04:54:54;1.60;99.90
1568;DHT22;777;47.156;8.326;2022-11-27T04:57:21;1.60;99.90
1568;DHT22;777;47.156;8.326;2022-11-27T04:59:48;1.60;99.90
1568;DHT22;777;47.156;8.326;2022-11-27T05:02:15;1.70;99.90
1568;DHT22;777;47.156;8.326;2022-11-27T05:04:42;1.60;99.90
1568;DHT22;777;47.156;8.326;2022-11-27T05:07:09;1.70;99.90
1568;DHT22;777;47.156;8.326;2022-11-27T05:09:38;1.70;99.90
1568;DHT22;777;47.156;8.326;2022-11-27T05:12:05;1.70;99.90
1568;DHT22;777;47.156;8.326;2022-11-27T05:14:32;1.70;99.90
1568;DHT22;777;47.156;8.326;2022-11-27T05:16:59;1.60;99.90
1568;DHT22;777;47.156;8.326;2022-11-27T05:19:27;1.60;99.90
1568;DHT22;777;47.156;8.326;2022-11-27T05:21:55;1.60;99.90
1568;DHT22;777;47.156;8.326;2022-11-27T05:24:23;1.60;99.90
1568;DHT22;777;47.156;8.326;2022-11-27T05:26:52;1.70;99.90
1568;DHT22;777;47.156;8.326;2022-11-27T05:29:20;1.70;99.90
1568;DHT22;777;47.156;8.326;2022-11-27T05:31:47;1.70;99.90
1568;DHT22;777;47.156;8.326;2022-11-27T05:34:15;1.70;99.90
1568;DHT22;777;47.156;8.326;2022-11-27T05:36:42;1.70;99.90
1568;DHT22;777;47.156;8.326;2022-11-27T05:39:10;1.60;99.90
1568;DHT22;777;47.156;8.326;2022-11-27T05:41:38;1.60;99.90
1568;DHT22;777;47.156;8.326;2022-11-27T05:44:10;1.50;99.90
1568;DHT22;777;47.156;8.326;2022-11-27T05:46:37;1.50;99.90
1568;DHT22;777;47.156;8.326;2022-11-27T05:49:04;1.60;99.90
1568;DHT22;777;47.156;8.326;2022-11-27T05:51:31;1.60;99.90
1568;DHT22;777;47.156;8.326;2022-11-27T05:53:58;1.60;99.90
1568;DHT22;777;47.156;8.326;2022-11-27T05:56:25;1.60;99.90
1568;DHT22;777;47.156;8.326;2022-11-27T05:58:52;1.60;99.90
1568;DHT22;777;47.156;8.326;2022-11-27T06:01:21;1.60;99.90
1568;DHT22;777;47.156;8.326;2022-11-27T06:03:48;1.60;99.90
1568;DHT22;777;47.156;8.326;2022-11-27T06:06:17;1.60;99.90
1568;DHT22;777;47.156;8.326;2022-11-27T06:08:45;1.60;99.90
1568;DHT22;777;47.156;8.326;2022-11-27T06:11:14;1.60;99.90
1568;DHT22;777;47.156;8.326;2022-11-27T06:13:41;1.70;99.90
1568;DHT22;777;47.156;8.326;2022-11-27T06:16:11;1.70;99.90
1568;DHT22;777;47.156;8.326;2022-11-27T06:18:40;1.70;99.90
1568;DHT22;777;47.156;8.326;2022-11-27T06:21:07;1.70;99.90
1568;DHT22;777;47.156;8.326;2022-11-27T06:23:35;1.80;99.90
1568;DHT22;777;47.156;8.326;2022-11-27T06:26:10;1.80;99.90
1568;DHT22;777;47.156;8.326;2022-11-27T06:28:37;1.80;99.90
1568;DHT22;777;47.156;8.326;2022-11-27T06:31:06;1.80;99.90
1568;DHT22;777;47.156;8.326;2022-11-27T06:33:33;1.80;99.90
1568;DHT22;777;47.156;8.326;2022-11-27T06:36:01;1.80;99.90
1568;DHT22;777;47.156;8.326;2022-11-27T06:38:30;1.80;99.90
1568;DHT22;777;47.156;8.326;2022-11-27T06:41:01;1.80;99.90
1568;DHT22;777;47.156;8.326;2022-11-27T06:43:28;1.90;99.90
1568;DHT22;777;47.156;8.326;2022-11-27T06:45:56;1.90;99.90
1568;DHT22;777;47.156;8.326;2022-11-27T06:48:23;1.90;99.90
1568;DHT22;777;47.156;8.326;2022-11-27T06:50:50;1.80;99.90
1568;DHT22;777;47.156;8.326;2022-11-27T06:53:18;1.80;99.90
1568;DHT22;777;47.156;8.326;2022-11-27T06:55:45;1.60;99.90
1568;DHT22;777;47.156;8.326;2022-11-27T06:58:12;1.60;99.90
1568;DHT22;777;47.156;8.326;2022-11-27T07:00:39;1.60;99.90
1568;DHT22;777;47.156;8.326;2022-11-27T07:03:06;1.50;99.90
1568;DHT22;777;47.156;8.326;2022-11-27T07:05:34;1.50;99.90
1568;DHT22;777;47.156;8.326;2022-11-27T07:08:02;1.50;99.90
1568;DHT22;777;47.156;8.326;2022-11-27T07:10:33;1.50;99.90
1568;DHT22;777;47.156;8.326;2022-11-27T07:13:00;1.50;99.90
1568;DHT22;777;47.156;8.326;2022-11-27T07:15:27;1.50;99.90
1568;DHT22;777;47.156;8.326;2022-11-27T07:17:54;1.60;99.90
1568;DHT22;777;47.156;8.326;2022-11-27T07:20:21;1.60;99.90
1568;DHT22;777;47.156;8.326;2022-11-27T07:22:49;1.60;99.90
1568;DHT22;777;47.156;8.326;2022-11-27T07:25:16;1.70;99.90
1568;DHT22;777;47.156;8.326;2022-11-27T07:27:44;1.80;99.90
1568;DHT22;777;47.156;8.326;2022-11-27T07:30:12;1.90;99.90
1568;DHT22;777;47.156;8.326;2022-11-27T07:32:39;1.90;99.90
1568;DHT22;777;47.156;8.326;2022-11-27T07:35:06;2.00;99.90
1568;DHT22;777;47.156;8.326;2022-11-27T07:37:33;1.90;99.90
1568;DHT22;777;47.156;8.326;2022-11-27T07:40:01;1.90;99.90
1568;DHT22;777;47.156;8.326;2022-11-27T07:42:28;1.90;99.90
1568;DHT22;777;47.156;8.326;2022-11-27T07:44:56;1.90;99.90
1568;DHT22;777;47.156;8.326;2022-11-27T07:47:23;1.90;99.90
1568;DHT22;777;47.156;8.326;2022-11-27T07:49:50;1.90;99.90
1568;DHT22;777;47.156;8.326;2022-11-27T07:52:19;2.00;99.90
1568;DHT22;777;47.156;8.326;2022-11-27T07:54:47;2.10;99.90
1568;DHT22;777;47.156;8.326;2022-11-27T07:57:14;2.10;99.90
1568;DHT22;777;47.156;8.326;2022-11-27T07:59:41;2.00;99.90
1568;DHT22;777;47.156;8.326;2022-11-27T08:02:10;2.00;99.90
1568;DHT22;777;47.156;8.326;2022-11-27T08:04:38;2.10;99.90
1568;DHT22;777;47.156;8.326;2022-11-27T08:07:05;2.10;99.90
1568;DHT22;777;47.156;8.326;2022-11-27T08:09:32;2.20;99.90
1568;DHT22;777;47.156;8.326;2022-11-27T08:11:59;2.20;99.90
1568;DHT22;777;47.156;8.326;2022-11-27T08:14:26;2.10;99.90
1568;DHT22;777;47.156;8.326;2022-11-27T08:16:53;2.30;99.90
1568;DHT22;777;47.156;8.326;2022-11-27T08:19:21;2.30;99.90
1568;DHT22;777;47.156;8.326;2022-11-27T08:21:48;2.30;99.90
1568;DHT22;777;47.156;8.326;2022-11-27T08:24:15;2.30;99.90
1568;DHT22;777;47.156;8.326;2022-11-27T08:26:42;2.40;99.90
1568;DHT22;777;47.156;8.326;2022-11-27T08:29:10;2.50;99.90
1568;DHT22;777;47.156;8.326;2022-11-27T08:31:37;2.60;99.90
1568;DHT22;777;47.156;8.326;2022-11-27T08:34:04;2.70;99.90
1568;DHT22;777;47.156;8.326;2022-11-27T08:36:33;2.70;99.90
1568;DHT22;777;47.156;8.326;2022-11-27T08:39:00;2.80;99.90
1568;DHT22;777;47.156;8.326;2022-11-27T08:41:27;2.90;99.90
1568;DHT22;777;47.156;8.326;2022-11-27T08:43:54;2.90;99.90
1568;DHT22;777;47.156;8.326;2022-11-27T08:46:21;2.90;99.90
1568;DHT22;777;47.156;8.326;2022-11-27T08:48:48;2.90;99.90
1568;DHT22;777;47.156;8.326;2022-11-27T08:51:15;2.80;99.90
1568;DHT22;777;47.156;8.326;2022-11-27T08:53:43;2.80;99.90
1568;DHT22;777;47.156;8.326;2022-11-27T08:56:14;2.90;99.90
1568;DHT22;777;47.156;8.326;2022-11-27T08:58:42;2.90;99.90
1568;DHT22;777;47.156;8.326;2022-11-27T09:01:11;3.00;99.90
1568;DHT22;777;47.156;8.326;2022-11-27T09:03:38;2.90;99.90
1568;DHT22;777;47.156;8.326;2022-11-27T09:06:06;3.00;99.90
1568;DHT22;777;47.156;8.326;2022-11-27T09:08:33;3.00;99.90
1568;DHT22;777;47.156;8.326;2022-11-27T09:11:02;3.10;99.90
1568;DHT22;777;47.156;8.326;2022-11-27T09:13:30;3.10;99.90
1568;DHT22;777;47.156;8.326;2022-11-27T09:15:57;3.20;99.90
1568;DHT22;777;47.156;8.326;2022-11-27T09:18:24;3.20;99.90
1568;DHT22;777;47.156;8.326;2022-11-27T09:20:56;3.10;99.90
1568;DHT22;777;47.156;8.326;2022-11-27T09:23:23;3.10;99.90
1568;DHT22;777;47.156;8.326;2022-11-27T09:25:50;3.20;99.90
1568;DHT22;777;47.156;8.326;2022-11-27T09:28:18;3.10;99.90
1568;DHT22;777;47.156;8.326;2022-11-27T09:30:46;3.20;99.90
1568;DHT22;777;47.156;8.326;2022-11-27T09:33:13;3.30;99.90
1568;DHT22;777;47.156;8.326;2022-11-27T09:35:40;3.30;99.90
1568;DHT22;777;47.156;8.326;2022-11-27T09:38:07;3.20;99.90
1568;DHT22;777;47.156;8.326;2022-11-27T09:40:34;3.20;99.90
1568;DHT22;777;47.156;8.326;2022-11-27T09:43:03;3.30;99.90
1568;DHT22;777;47.156;8.326;2022-11-27T09:45:40;3.40;99.90
1568;DHT22;777;47.156;8.326;2022-11-27T09:48:11;3.50;99.90
1568;DHT22;777;47.156;8.326;2022-11-27T09:50:44;3.50;99.90
1568;DHT22;777;47.156;8.326;2022-11-27T09:53:19;3.40;99.90
1568;DHT22;777;47.156;8.326;2022-11-27T09:55:48;3.50;99.90
1568;DHT22;777;47.156;8.326;2022-11-27T09:58:19;3.50;99.90
1568;DHT22;777;47.156;8.326;2022-11-27T10:00:49;3.40;99.90
1568;DHT22;777;47.156;8.326;2022-11-27T10:03:20;3.30;99.90
1568;DHT22;777;47.156;8.326;2022-11-27T10:05:59;3.20;99.90
1568;DHT22;777;47.156;8.326;2022-11-27T10:08:35;3.20;99.90
1568;DHT22;777;47.156;8.326;2022-11-27T10:11:12;3.40;99.90
1568;DHT22;777;47.156;8.326;2022-11-27T10:13:54;3.70;99.90
1568;DHT22;777;47.156;8.326;2022-11-27T10:16:34;4.10;99.90
1568;DHT22;777;47.156;8.326;2022-11-27T10:19:10;4.10;99.90
1568;DHT22;777;47.156;8.326;2022-11-27T10:21:45;4.00;99.90
1568;DHT22;777;47.156;8.326;2022-11-27T10:24:19;4.20;99.90
1568;DHT22;777;47.156;8.326;2022-11-27T10:26:49;4.40;99.90
1568;DHT22;777;47.156;8.326;2022-11-27T10:29:29;4.90;99.90
1568;DHT22;777;47.156;8.326;2022-11-27T10:32:04;5.10;99.90
1568;DHT22;777;47.156;8.326;2022-11-27T10:34:37;5.30;99.90
1568;DHT22;777;47.156;8.326;2022-11-27T10:37:09;5.90;99.90
1568;DHT22;777;47.156;8.326;2022-11-27T10:39:41;6.80;99.90
1568;DHT22;777;47.156;8.326;2022-11-27T10:42:13;7.70;99.90
1568;DHT22;777;47.156;8.326;2022-11-27T10:44:46;8.20;99.90
1568;DHT22;777;47.156;8.326;2022-11-27T10:47:19;8.40;99.90
1568;DHT22;777;47.156;8.326;2022-11-27T10:49:48;8.40;99.90
1568;DHT22;777;47.156;8.326;2022-11-27T10:52:17;8.40;99.90
1568;DHT22;777;47.156;8.326;2022-11-27T10:54:48;8.20;99.90
1568;DHT22;777;47.156;8.326;2022-11-27T10:57:27;8.00;99.90
1568;DHT22;777;47.156;8.326;2022-11-27T11:00:04;7.90;99.90
1568;DHT22;777;47.156;8.326;2022-11-27T11:02:36;7.90;99.90
1568;DHT22;777;47.156;8.326;2022-11-27T11:05:21;7.70;99.90
1568;DHT22;777;47.156;8.326;2022-11-27T11:07:58;7.50;99.90
1568;DHT22;777;47.156;8.326;2022-11-27T11:10:29;7.50;99.90
1568;DHT22;777;47.156;8.326;2022-11-27T11:13:05;7.50;99.90
1568;DHT22;777;47.156;8.326;2022-11-27T11:15:53;7.40;99.90
1568;DHT22;777;47.156;8.326;2022-11-27T11:18:23;7.50;99.90
1568;DHT22;777;47.156;8.326;2022-11-27T11:20:53;7.40;99.90
1568;DHT22;777;47.156;8.326;2022-11-27T11:23:25;7.20;99.90
1568;DHT22;777;47.156;8.326;2022-11-27T11:25:56;7.20;99.90
1568;DHT22;777;47.156;8.326;2022-11-27T11:28:24;7.20;99.90
1568;DHT22;777;47.156;8.326;2022-11-27T11:30:54;7.40;99.90
1568;DHT22;777;47.156;8.326;2022-11-27T11:33:28;8.00;99.90
1568;DHT22;777;47.156;8.326;2022-11-27T11:36:05;8.10;99.90
1568;DHT22;777;47.156;8.326;2022-11-27T11:38:34;8.10;99.90
1568;DHT22;777;47.156;8.326;2022-11-27T11:41:06;8.00;99.90
1568;DHT22;777;47.156;8.326;2022-11-27T11:43:36;7.90;99.90
1568;DHT22;777;47.156;8.326;2022-11-27T11:46:06;8.10;99.90
1568;DHT22;777;47.156;8.326;2022-11-27T11:48:36;8.20;99.90
1568;DHT22;777;47.156;8.326;2022-11-27T11:51:10;9.40;99.90
1568;DHT22;777;47.156;8.326;2022-11-27T11:53:40;10.70;99.90
1568;DHT22;777;47.156;8.326;2022-11-27T11:56:21;12.00;99.90
1568;DHT22;777;47.156;8.326;2022-11-27T11:58:56;13.00;99.90
1568;DHT22;777;47.156;8.326;2022-11-27T12:01:48;13.90;99.90
1568;DHT22;777;47.156;8.326;2022-11-27T12:04:41;14.30;99.90
1568;DHT22;777;47.156;8.326;2022-11-27T12:07:21;14.90;99.90
1568;DHT22;777;47.156;8.326;2022-11-27T12:09:59;15.40;99.90
1568;DHT22;777;47.156;8.326;2022-11-27T12:12:43;16.40;99.90
1568;DHT22;777;47.156;8.326;2022-11-27T12:15:21;15.60;99.90
1568;DHT22;777;47.156;8.326;2022-11-27T12:17:57;16.00;99.90
1568;DHT22;777;47.156;8.326;2022-11-27T12:20:38;15.90;99.90
1568;DHT22;777;47.156;8.326;2022-11-27T12:23:22;16.10;99.90
1568;DHT22;777;47.156;8.326;2022-11-27T12:25:59;16.20;99.90
1568;DHT22;777;47.156;8.326;2022-11-27T12:31:38;16.70;99.90
1568;DHT22;777;47.156;8.326;2022-11-27T12:34:15;17.00;99.90
1568;DHT22;777;47.156;8.326;2022-11-27T12:37:00;17.30;99.90
1568;DHT22;777;47.156;8.326;2022-11-27T12:39:36;17.80;99.90
1568;DHT22;777;47.156;8.326;2022-11-27T12:42:14;17.90;99.90
1568;DHT22;777;47.156;8.326;2022-11-27T12:44:52;18.20;99.90
1568;DHT22;777;47.156;8.326;2022-11-27T12:47:24;17.20;99.90
1568;DHT22;777;47.156;8.326;2022-11-27T12:49:55;17.10;99.90
1568;DHT22;777;47.156;8.326;2022-11-27T12:52:27;17.80;99.90
1568;DHT22;777;47.156;8.326;2022-11-27T12:55:00;17.80;99.90
1568;DHT22;777;47.156;8.326;2022-11-27T12:57:34;16.60;99.90
1568;DHT22;777;47.156;8.326;2022-11-27T13:00:06;15.30;99.90
1568;DHT22;777;47.156;8.326;2022-11-27T13:02:39;14.00;99.90
1568;DHT22;777;47.156;8.326;2022-11-27T13:05:12;12.80;99.90
1568;DHT22;777;47.156;8.326;2022-11-27T13:07:47;11.60;99.90
1568;DHT22;777;47.156;8.326;2022-11-27T13:10:21;10.90;99.90
1568;DHT22;777;47.156;8.326;2022-11-27T13:13:00;9.90;99.90
1568;DHT22;777;47.156;8.326;2022-11-27T13:15:31;9.10;99.90
1568;DHT22;777;47.156;8.326;2022-11-27T13:18:09;8.80;99.90
1568;DHT22;777;47.156;8.326;2022-11-27T13:20:39;8.70;99.90
1568;DHT22;777;47.156;8.326;2022-11-27T13:23:09;8.30;99.90
1568;DHT22;777;47.156;8.326;2022-11-27T13:25:42;8.10;99.90
1568;DHT22;777;47.156;8.326;2022-11-27T13:28:19;7.90;99.90
1568;DHT22;777;47.156;8.326;2022-11-27T13:30:48;7.60;99.90
1568;DHT22;777;47.156;8.326;2022-11-27T13:33:29;7.30;99.90
1568;DHT22;777;47.156;8.326;2022-11-27T13:36:00;7.20;99.90
1568;DHT22;777;47.156;8.326;2022-11-27T13:38:30;7.10;99.90
1568;DHT22;777;47.156;8.326;2022-11-27T13:41:00;7.00;99.90
1568;DHT22;777;47.156;8.326;2022-11-27T13:43:39;7.10;99.90
1568;DHT22;777;47.156;8.326;2022-11-27T13:46:17;7.00;99.90
1568;DHT22;777;47.156;8.326;2022-11-27T13:48:49;6.90;99.90
1568;DHT22;777;47.156;8.326;2022-11-27T13:51:26;6.60;99.90
1568;DHT22;777;47.156;8.326;2022-11-27T13:54:09;6.50;99.90
1568;DHT22;777;47.156;8.326;2022-11-27T13:56:37;6.40;99.90
1568;DHT22;777;47.156;8.326;2022-11-27T13:59:18;6.30;99.90
1568;DHT22;777;47.156;8.326;2022-11-27T14:01:55;6.40;99.90
1568;DHT22;777;47.156;8.326;2022-11-27T14:04:24;6.40;99.90
1568;DHT22;777;47.156;8.326;2022-11-27T14:06:55;6.40;99.90
1568;DHT22;777;47.156;8.326;2022-11-27T14:09:37;6.40;99.90
1568;DHT22;777;47.156;8.326;2022-11-27T14:12:20;6.40;99.90
1568;DHT22;777;47.156;8.326;2022-11-27T14:15:05;6.20;99.90
1568;DHT22;777;47.156;8.326;2022-11-27T14:17:35;6.20;99.90
1568;DHT22;777;47.156;8.326;2022-11-27T14:20:17;6.00;99.90
1568;DHT22;777;47.156;8.326;2022-11-27T14:22:47;5.90;99.90
1568;DHT22;777;47.156;8.326;2022-11-27T14:25:20;5.80;99.90
1568;DHT22;777;47.156;8.326;2022-11-27T14:27:59;5.80;99.90
1568;DHT22;777;47.156;8.326;2022-11-27T14:30:32;5.80;99.90
1568;DHT22;777;47.156;8.326;2022-11-27T14:33:01;5.80;99.90
1568;DHT22;777;47.156;8.326;2022-11-27T14:35:28;5.80;99.90
1568;DHT22;777;47.156;8.326;2022-11-27T14:38:07;5.80;99.90
1568;DHT22;777;47.156;8.326;2022-11-27T14:40:37;5.70;99.90
1568;DHT22;777;47.156;8.326;2022-11-27T14:43:08;5.70;99.90
1568;DHT22;777;47.156;8.326;2022-11-27T14:45:37;5.70;99.90
1568;DHT22;777;47.156;8.326;2022-11-27T14:48:18;5.70;99.90
1568;DHT22;777;47.156;8.326;2022-11-27T14:50:46;5.70;99.90
1568;DHT22;777;47.156;8.326;2022-11-27T14:53:14;5.60;99.90
1568;DHT22;777;47.156;8.326;2022-11-27T14:55:45;5.60;99.90
1568;DHT22;777;47.156;8.326;2022-11-27T14:58:18;5.60;99.90
1568;DHT22;777;47.156;8.326;2022-11-27T15:00:56;5.60;99.90
1568;DHT22;777;47.156;8.326;2022-11-27T15:03:25;5.60;99.90
1568;DHT22;777;47.156;8.326;2022-11-27T15:05:55;5.50;99.90
1568;DHT22;777;47.156;8.326;2022-11-27T15:08:23;5.50;99.90
1568;DHT22;777;47.156;8.326;2022-11-27T15:10:55;5.50;99.90
1568;DHT22;777;47.156;8.326;2022-11-27T15:13:25;5.40;99.90
1568;DHT22;777;47.156;8.326;2022-11-27T15:15:59;5.40;99.90
1568;DHT22;777;47.156;8.326;2022-11-27T15:18:29;5.40;99.90
1568;DHT22;777;47.156;8.326;2022-11-27T15:20:58;5.40;99.90
1568;DHT22;777;47.156;8.326;2022-11-27T15:23:27;5.40;99.90
1568;DHT22;777;47.156;8.326;2022-11-27T15:26:08;5.40;99.90
1568;DHT22;777;47.156;8.326;2022-11-27T15:28:40;5.20;99.90
1568;DHT22;777;47.156;8.326;2022-11-27T15:31:27;5.20;99.90
1568;DHT22;777;47.156;8.326;2022-11-27T15:34:02;5.10;99.90
1568;DHT22;777;47.156;8.326;2022-11-27T15:36:36;5.10;99.90
1568;DHT22;777;47.156;8.326;2022-11-27T15:39:16;5.00;99.90
1568;DHT22;777;47.156;8.326;2022-11-27T15:41:55;5.00;99.90
1568;DHT22;777;47.156;8.326;2022-11-27T15:44:23;5.00;99.90
1568;DHT22;777;47.156;8.326;2022-11-27T15:46:51;5.00;99.90
1568;DHT22;777;47.156;8.326;2022-11-27T15:49:20;5.00;99.90
1568;DHT22;777;47.156;8.326;2022-11-27T15:51:48;5.00;99.90
1568;DHT22;777;47.156;8.326;2022-11-27T15:54:16;5.00;99.90
1568;DHT22;777;47.156;8.326;2022-11-27T15:56:43;5.00;99.90
1568;DHT22;777;47.156;8.326;2022-11-27T15:59:13;5.00;99.90
1568;DHT22;777;47.156;8.326;2022-11-27T16:01:40;4.90;99.90
1568;DHT22;777;47.156;8.326;2022-11-27T16:04:08;4.80;99.90
1568;DHT22;777;47.156;8.326;2022-11-27T16:06:35;4.80;99.90
1568;DHT22;777;47.156;8.326;2022-11-27T16:09:04;4.80;99.90
1568;DHT22;777;47.156;8.326;2022-11-27T16:11:32;4.80;99.90
1568;DHT22;777;47.156;8.326;2022-11-27T16:13:59;4.70;99.90
1568;DHT22;777;47.156;8.326;2022-11-27T16:16:27;4.70;99.90
1568;DHT22;777;47.156;8.326;2022-11-27T16:18:57;4.70;99.90
1568;DHT22;777;47.156;8.326;2022-11-27T16:21:27;4.70;99.90
1568;DHT22;777;47.156;8.326;2022-11-27T16:23:57;4.60;99.90
1568;DHT22;777;47.156;8.326;2022-11-27T16:26:25;4.60;99.90
1568;DHT22;777;47.156;8.326;2022-11-27T16:28:52;4.60;99.90
1568;DHT22;777;47.156;8.326;2022-11-27T16:31:21;4.60;99.90
1568;DHT22;777;47.156;8.326;2022-11-27T16:33:50;4.60;99.90
1568;DHT22;777;47.156;8.326;2022-11-27T16:36:20;4.40;99.90
1568;DHT22;777;47.156;8.326;2022-11-27T16:38:47;4.40;99.90
1568;DHT22;777;47.156;8.326;2022-11-27T16:41:17;4.40;99.90
1568;DHT22;777;47.156;8.326;2022-11-27T16:43:46;4.30;99.90
1568;DHT22;777;47.156;8.326;2022-11-27T16:46:16;4.30;99.90
1568;DHT22;777;47.156;8.326;2022-11-27T16:48:43;4.30;99.90
1568;DHT22;777;47.156;8.326;2022-11-27T16:51:14;4.20;99.90
1568;DHT22;777;47.156;8.326;2022-11-27T16:53:43;4.20;99.90
1568;DHT22;777;47.156;8.326;2022-11-27T16:56:13;4.20;99.90
1568;DHT22;777;47.156;8.326;2022-11-27T16:58:42;4.20;99.90